createdAt,value
2022-12-31T00:00:58.988Z,96.50
2022-12-31T00:04:01.871Z,96.30
2022-12-31T00:07:04.764Z,95.80
2022-12-31T00:10:08.616Z,95.50
2022-12-31T00:13:14.314Z,95.20
2022-12-31T00:16:19.238Z,95.00
2022-12-31T00:19:22.203Z,94.80
2022-12-31T00:22:25.067Z,94.80
2022-12-31T00:25:27.928Z,94.80
2022-12-31T00:28:32.148Z,94.50
2022-12-31T00:31:37.206Z,94.60
2022-12-31T00:34:40.111Z,94.50
2022-12-31T00:37:43.008Z,94.70
2022-12-31T00:40:45.834Z,94.50
2022-12-31T00:43:50.624Z,94.60
2022-12-31T00:46:53.983Z,94.40
2022-12-31T00:49:56.857Z,94.30
2022-12-31T00:52:59.711Z,94.30
2022-12-31T00:56:03.562Z,94.10
2022-12-31T00:59:07.815Z,94.20
2022-12-31T01:02:10.964Z,93.90
2022-12-31T01:05:14.095Z,93.90
2022-12-31T01:08:17.025Z,93.90
2022-12-31T01:11:22.505Z,93.90
2022-12-31T01:14:27.084Z,94.10
2022-12-31T01:17:30.060Z,94.10
2022-12-31T01:20:37.155Z,93.90
2022-12-31T01:23:40.293Z,93.90
2022-12-31T01:26:43.434Z,93.90
2022-12-31T01:29:48.143Z,94.00
2022-12-31T01:32:50.988Z,93.80
2022-12-31T01:35:53.833Z,93.60
2022-12-31T01:38:58.166Z,93.70
2022-12-31T01:42:01.025Z,93.70
2022-12-31T01:45:10.842Z,93.70
2022-12-31T01:48:16.278Z,93.70
2022-12-31T01:51:20.578Z,93.70
2022-12-31T01:54:25.697Z,93.60
2022-12-31T01:57:29.494Z,93.60
2022-12-31T02:00:34.564Z,93.90
2022-12-31T02:03:38.253Z,93.60
2022-12-31T02:06:45.474Z,93.40
2022-12-31T02:09:48.465Z,93.40
2022-12-31T02:12:52.446Z,93.30
2022-12-31T02:16:04.056Z,93.30
2022-12-31T02:19:35.252Z,93.20
2022-12-31T02:22:58.338Z,93.10
2022-12-31T02:26:29.313Z,93.00
2022-12-31T02:29:56.495Z,93.20
2022-12-31T02:33:09.874Z,93.10
2022-12-31T02:36:18.094Z,93.00
2022-12-31T02:39:21.383Z,92.90
2022-12-31T02:42:24.240Z,92.80
2022-12-31T02:45:34.467Z,92.80
2022-12-31T02:48:42.456Z,92.70
2022-12-31T02:51:50.916Z,92.70
2022-12-31T02:55:04.735Z,92.50
2022-12-31T02:58:15.437Z,92.60
2022-12-31T03:01:44.797Z,92.40
2022-12-31T03:04:51.461Z,92.20
2022-12-31T03:07:54.865Z,92.50
2022-12-31T03:10:58.079Z,92.30
2022-12-31T03:13:59.965Z,92.40
2022-12-31T03:17:04.220Z,92.40
2022-12-31T03:20:26.092Z,92.30
2022-12-31T03:23:31.052Z,92.30
2022-12-31T03:26:32.920Z,92.30
2022-12-31T03:29:35.778Z,92.00
2022-12-31T03:32:39.983Z,92.30
2022-12-31T03:35:44.386Z,92.00
2022-12-31T03:38:51.188Z,92.00
2022-12-31T03:41:55.598Z,91.90
2022-12-31T03:44:58.446Z,91.80
2022-12-31T03:48:03.133Z,91.70
2022-12-31T03:51:06.039Z,91.70
2022-12-31T03:54:08.905Z,91.70
2022-12-31T03:57:12.330Z,91.80
2022-12-31T04:00:17.493Z,91.50
2022-12-31T04:03:21.759Z,91.60
2022-12-31T04:06:24.690Z,91.40
2022-12-31T04:09:27.574Z,91.50
2022-12-31T04:12:30.420Z,91.40
2022-12-31T04:15:33.550Z,91.50
2022-12-31T04:18:37.735Z,91.40
2022-12-31T04:21:40.679Z,91.40
2022-12-31T04:24:44.249Z,91.20
2022-12-31T04:27:47.106Z,91.20
2022-12-31T04:30:50.020Z,90.90
2022-12-31T04:33:54.259Z,90.90
2022-12-31T04:36:57.160Z,90.80
2022-12-31T04:40:05.469Z,90.90
2022-12-31T04:43:09.341Z,90.80
2022-12-31T04:46:12.641Z,90.80
2022-12-31T04:49:17.328Z,90.90
2022-12-31T04:52:20.363Z,90.80
2022-12-31T04:55:23.239Z,90.60
2022-12-31T04:58:26.182Z,90.60
2022-12-31T05:01:29.154Z,90.40
2022-12-31T05:04:33.399Z,90.90
2022-12-31T05:07:36.304Z,90.60
2022-12-31T05:10:42.373Z,90.50
2022-12-31T05:13:45.435Z,90.50
2022-12-31T05:16:48.372Z,90.40
2022-12-31T05:19:52.663Z,90.30
2022-12-31T05:22:55.531Z,90.60
2022-12-31T05:25:59.592Z,90.60
2022-12-31T05:29:02.547Z,90.70
2022-12-31T05:32:05.607Z,90.70
2022-12-31T05:35:10.810Z,90.70
2022-12-31T05:38:13.744Z,90.70
2022-12-31T05:41:16.617Z,90.60
2022-12-31T05:44:19.449Z,90.60
2022-12-31T05:47:22.843Z,90.50
2022-12-31T05:50:27.248Z,90.40
2022-12-31T05:53:30.122Z,90.40
2022-12-31T05:56:33.041Z,90.30
2022-12-31T05:59:36.070Z,90.40
2022-12-31T06:02:38.989Z,90.30
2022-12-31T06:05:44.267Z,90.30
2022-12-31T06:08:50.654Z,90.20
2022-12-31T06:11:53.528Z,90.20
2022-12-31T06:14:56.395Z,90.20
2022-12-31T06:17:59.265Z,90.00
2022-12-31T06:21:04.059Z,90.20
2022-12-31T06:24:07.499Z,90.40
2022-12-31T06:27:10.759Z,90.30
2022-12-31T06:30:14.810Z,90.30
2022-12-31T06:33:17.674Z,90.40
2022-12-31T06:36:22.396Z,90.20
2022-12-31T06:39:25.335Z,90.30
2022-12-31T06:42:30.764Z,90.40
2022-12-31T06:45:33.612Z,90.50
2022-12-31T06:48:36.567Z,90.30
2022-12-31T06:51:40.762Z,90.50
2022-12-31T06:54:44.330Z,90.70
2022-12-31T06:57:47.679Z,90.30
2022-12-31T07:01:02.994Z,90.30
2022-12-31T07:04:30.750Z,90.20
2022-12-31T07:07:41.711Z,90.40
2022-12-31T07:10:54.473Z,90.30
2022-12-31T07:14:20.652Z,90.60
2022-12-31T07:17:34.269Z,90.70
2022-12-31T07:20:37.716Z,90.50
2022-12-31T07:23:43.463Z,90.80
2022-12-31T07:26:57.216Z,91.50
2022-12-31T07:30:05.379Z,91.20
2022-12-31T07:33:34.973Z,90.80
2022-12-31T07:36:53.566Z,90.70
2022-12-31T07:40:09.555Z,90.40
2022-12-31T07:43:19.150Z,90.40
2022-12-31T07:46:29.676Z,90.40
2022-12-31T07:49:34.862Z,90.50
2022-12-31T07:52:38.221Z,90.40
2022-12-31T07:55:42.498Z,90.70
2022-12-31T07:59:03.654Z,91.10
2022-12-31T08:02:18.944Z,90.80
2022-12-31T08:05:27.982Z,91.90
2022-12-31T08:08:37.709Z,90.40
2022-12-31T08:11:48.484Z,90.50
2022-12-31T08:14:51.881Z,90.20
2022-12-31T08:17:55.407Z,89.90
2022-12-31T08:21:05.655Z,90.20
2022-12-31T08:24:18.075Z,89.80
2022-12-31T08:27:32.157Z,89.10
2022-12-31T08:30:48.986Z,89.20
2022-12-31T08:34:02.090Z,90.20
2022-12-31T08:37:13.625Z,90.10
2022-12-31T08:40:23.339Z,90.20
2022-12-31T08:43:41.163Z,89.70
2022-12-31T08:46:51.517Z,90.40
2022-12-31T08:49:55.497Z,89.30
2022-12-31T08:52:59.100Z,89.00
2022-12-31T08:56:08.283Z,89.60
2022-12-31T08:59:26.349Z,88.40
2022-12-31T09:02:49.543Z,87.10
2022-12-31T09:05:58.684Z,87.00
2022-12-31T09:09:07.374Z,87.10
2022-12-31T09:12:17.278Z,86.80
2022-12-31T09:15:27.706Z,87.00
2022-12-31T09:18:33.427Z,86.70
2022-12-31T09:21:38.037Z,85.80
2022-12-31T09:24:41.478Z,85.40
2022-12-31T09:27:51.568Z,86.40
2022-12-31T09:31:01.755Z,85.50
2022-12-31T09:34:08.960Z,85.90
2022-12-31T09:37:16.202Z,85.00
2022-12-31T09:40:43.008Z,84.90
2022-12-31T09:44:28.641Z,84.60
2022-12-31T09:48:22.811Z,84.50
2022-12-31T09:51:31.228Z,85.40
2022-12-31T09:54:51.199Z,83.60
2022-12-31T09:58:02.185Z,83.10
2022-12-31T10:01:15.115Z,81.90
2022-12-31T10:04:34.738Z,82.10
2022-12-31T10:07:53.541Z,81.10
2022-12-31T10:10:59.770Z,79.60
2022-12-31T10:14:20.935Z,80.40
2022-12-31T10:17:42.117Z,80.10
2022-12-31T10:20:59.049Z,81.40
2022-12-31T10:24:28.410Z,80.30
2022-12-31T10:27:43.808Z,79.70
2022-12-31T10:30:54.425Z,80.40
2022-12-31T10:34:14.505Z,80.90
2022-12-31T10:37:20.728Z,79.00
2022-12-31T10:40:40.992Z,78.90
2022-12-31T10:44:13.512Z,78.90
2022-12-31T10:47:54.188Z,79.90
2022-12-31T10:51:32.085Z,80.20
2022-12-31T10:54:59.125Z,80.60
2022-12-31T10:58:33.458Z,80.70
2022-12-31T11:01:48.424Z,80.40
2022-12-31T11:05:26.632Z,79.60
2022-12-31T11:08:54.887Z,79.00
2022-12-31T11:12:09.501Z,78.90
2022-12-31T11:15:24.754Z,78.60
2022-12-31T11:18:38.308Z,78.80
2022-12-31T11:22:10.520Z,80.40
2022-12-31T11:25:33.543Z,80.00
2022-12-31T11:29:05.863Z,82.00
2022-12-31T11:32:18.777Z,83.10
2022-12-31T11:35:33.129Z,83.90
2022-12-31T11:38:39.684Z,84.90
2022-12-31T11:41:50.392Z,84.00
2022-12-31T11:45:00.478Z,84.20
2022-12-31T11:48:30.017Z,84.50
2022-12-31T11:51:50.850Z,84.30
2022-12-31T11:55:20.135Z,80.70
2022-12-31T11:58:28.605Z,79.00
2022-12-31T12:01:38.867Z,78.90
2022-12-31T12:04:42.099Z,77.30
2022-12-31T12:07:45.220Z,76.40
2022-12-31T12:10:51.830Z,77.50
2022-12-31T12:13:54.734Z,77.50
2022-12-31T12:17:04.758Z,77.20
2022-12-31T12:20:17.264Z,76.90
2022-12-31T12:23:25.804Z,76.40
2022-12-31T12:26:36.232Z,77.90
2022-12-31T12:29:41.197Z,78.30
2022-12-31T12:32:53.567Z,78.30
2022-12-31T12:36:07.718Z,79.40
2022-12-31T12:39:22.594Z,81.50
2022-12-31T12:42:25.502Z,81.20
2022-12-31T12:45:37.112Z,81.50
2022-12-31T12:48:42.941Z,82.10
2022-12-31T12:52:02.825Z,82.40
2022-12-31T12:55:16.608Z,82.90
2022-12-31T12:58:42.080Z,83.00
2022-12-31T13:01:54.332Z,83.40
2022-12-31T13:05:11.570Z,83.90
2022-12-31T13:08:23.702Z,84.60
2022-12-31T13:11:36.934Z,84.50
2022-12-31T13:14:46.429Z,84.00
2022-12-31T13:18:03.518Z,83.60
2022-12-31T13:21:21.135Z,84.50
2022-12-31T13:24:36.425Z,83.70
2022-12-31T13:27:43.834Z,83.10
2022-12-31T13:30:50.329Z,84.20
2022-12-31T13:33:59.485Z,82.70
2022-12-31T13:37:08.569Z,83.30
2022-12-31T13:40:22.103Z,84.10
2022-12-31T13:43:37.701Z,84.50
2022-12-31T13:46:45.235Z,88.50
2022-12-31T13:49:52.435Z,86.20
2022-12-31T13:53:01.629Z,83.30
2022-12-31T13:56:10.333Z,84.50
2022-12-31T13:59:18.773Z,82.90
2022-12-31T14:02:35.360Z,82.80
2022-12-31T14:05:43.847Z,85.70
2022-12-31T14:08:48.150Z,86.90
2022-12-31T14:12:16.069Z,86.80
2022-12-31T14:15:25.032Z,86.00
2022-12-31T14:18:33.716Z,87.10
2022-12-31T14:21:45.384Z,88.50
2022-12-31T14:24:51.550Z,88.90
2022-12-31T14:27:57.470Z,88.20
2022-12-31T14:31:12.971Z,87.70
2022-12-31T14:34:22.952Z,89.00
2022-12-31T14:37:35.191Z,91.70
2022-12-31T14:40:51.138Z,91.20
2022-12-31T14:44:08.351Z,90.20
2022-12-31T14:47:28.035Z,90.10
2022-12-31T14:50:33.850Z,87.80
2022-12-31T14:53:36.750Z,87.80
2022-12-31T14:56:43.654Z,88.40
2022-12-31T14:59:55.202Z,89.60
2022-12-31T15:03:00.250Z,89.40
2022-12-31T15:06:16.164Z,90.00
2022-12-31T15:09:33.629Z,90.10
2022-12-31T15:12:52.529Z,90.10
2022-12-31T15:16:10.121Z,89.90
2022-12-31T15:19:46.746Z,90.00
2022-12-31T15:22:51.096Z,90.20
2022-12-31T15:25:59.173Z,90.20
2022-12-31T15:29:06.282Z,90.20
2022-12-31T15:32:18.744Z,90.60
2022-12-31T15:35:30.453Z,90.60
2022-12-31T15:38:36.210Z,90.80
2022-12-31T15:42:03.201Z,90.80
2022-12-31T15:45:08.721Z,90.80
2022-12-31T15:48:19.068Z,91.00
2022-12-31T15:51:26.743Z,91.10
2022-12-31T15:54:37.522Z,91.10
2022-12-31T15:57:42.517Z,91.20
2022-12-31T16:00:59.267Z,91.60
2022-12-31T16:04:06.145Z,91.50
2022-12-31T16:07:12.476Z,91.50
2022-12-31T16:10:22.755Z,91.50
2022-12-31T16:13:28.297Z,91.60
2022-12-31T16:16:33.653Z,91.70
2022-12-31T16:19:42.423Z,91.70
2022-12-31T16:22:51.427Z,91.90
2022-12-31T16:25:58.364Z,91.80
2022-12-31T16:29:04.288Z,91.70
2022-12-31T16:32:15.419Z,91.80
2022-12-31T16:35:24.105Z,91.90
2022-12-31T16:38:34.168Z,92.10
2022-12-31T16:41:43.458Z,92.30
2022-12-31T16:44:47.183Z,92.10
2022-12-31T16:47:52.054Z,92.00
2022-12-31T16:50:56.776Z,92.00
2022-12-31T16:54:02.185Z,92.30
2022-12-31T16:57:06.564Z,92.00
2022-12-31T17:00:17.478Z,92.30
2022-12-31T17:03:24.597Z,92.50
2022-12-31T17:06:28.358Z,92.00
2022-12-31T17:09:34.866Z,92.20
2022-12-31T17:13:17.506Z,91.90
2022-12-31T17:16:07.442Z,91.80
2022-12-31T17:19:32.789Z,92.60
2022-12-31T17:22:41.396Z,92.50
2022-12-31T17:25:44.279Z,92.40
2022-12-31T17:28:49.353Z,92.60
2022-12-31T17:32:00.688Z,92.70
2022-12-31T17:35:28.954Z,92.70
2022-12-31T17:38:33.519Z,92.90
2022-12-31T17:41:36.455Z,92.90
2022-12-31T17:44:41.858Z,92.50
2022-12-31T17:47:50.970Z,93.10
2022-12-31T17:50:56.893Z,92.80
2022-12-31T17:54:01.438Z,93.50
2022-12-31T17:57:04.467Z,92.90
2022-12-31T18:00:10.046Z,92.80
2022-12-31T18:03:12.911Z,93.10
2022-12-31T18:06:19.321Z,93.10
2022-12-31T18:09:25.179Z,92.90
2022-12-31T18:12:28.081Z,93.30
2022-12-31T18:15:31.409Z,93.10
2022-12-31T18:18:39.883Z,92.90
2022-12-31T18:21:44.958Z,92.80
2022-12-31T18:24:51.532Z,92.70
2022-12-31T18:27:54.399Z,93.00
2022-12-31T18:30:57.499Z,93.30
2022-12-31T18:34:00.676Z,93.10
2022-12-31T18:37:15.087Z,93.00
2022-12-31T18:40:20.863Z,93.40
2022-12-31T18:43:24.925Z,93.80
2022-12-31T18:46:28.672Z,93.40
2022-12-31T18:49:31.520Z,93.30
2022-12-31T18:52:36.223Z,92.80
2022-12-31T18:55:41.959Z,92.90
2022-12-31T18:58:46.344Z,93.30
2022-12-31T19:01:50.216Z,94.30
2022-12-31T19:04:53.176Z,93.90
2022-12-31T19:07:58.047Z,94.50
2022-12-31T19:11:02.067Z,94.90
2022-12-31T19:14:06.928Z,94.90
2022-12-31T19:20:12.019Z,99.90
2022-12-31T19:23:18.026Z,99.90
2022-12-31T19:26:23.077Z,96.10
2022-12-31T19:29:27.891Z,94.70
2022-12-31T19:32:31.032Z,94.60
2022-12-31T19:35:33.866Z,95.00
2022-12-31T19:38:38.069Z,94.00
2022-12-31T19:41:43.195Z,93.80
2022-12-31T19:44:46.499Z,94.30
2022-12-31T19:47:49.650Z,94.20
2022-12-31T19:50:54.078Z,94.40
2022-12-31T19:53:58.357Z,95.70
2022-12-31T19:57:01.203Z,97.90
2022-12-31T20:00:04.491Z,97.30
2022-12-31T20:03:07.431Z,97.40
2022-12-31T20:06:11.621Z,94.40
2022-12-31T20:09:15.950Z,94.20
2022-12-31T20:12:18.835Z,93.80
2022-12-31T20:15:21.710Z,93.60
2022-12-31T20:18:24.575Z,93.50
2022-12-31T20:21:29.453Z,93.30
2022-12-31T20:24:33.686Z,93.40
2022-12-31T20:27:36.649Z,93.70
2022-12-31T20:30:39.727Z,93.90
2022-12-31T20:33:43.248Z,94.00
2022-12-31T20:36:46.122Z,94.20
2022-12-31T20:39:50.323Z,94.20
2022-12-31T20:42:53.220Z,94.10
2022-12-31T20:45:56.057Z,94.00
2022-12-31T20:49:01.384Z,94.10
2022-12-31T20:52:05.449Z,94.10
2022-12-31T20:55:10.883Z,94.40
2022-12-31T20:58:13.725Z,94.60
2022-12-31T21:01:17.848Z,94.60
2022-12-31T21:04:20.936Z,94.40
2022-12-31T21:07:23.948Z,94.60
2022-12-31T21:10:28.121Z,94.60
2022-12-31T21:13:31.132Z,94.50
2022-12-31T21:16:33.995Z,94.90
2022-12-31T21:19:36.844Z,94.70
2022-12-31T21:22:39.815Z,94.50
2022-12-31T21:25:44.811Z,94.70
2022-12-31T21:28:47.795Z,94.70
2022-12-31T21:31:50.753Z,94.80
2022-12-31T21:35:23.202Z,94.40
2022-12-31T21:38:17.028Z,94.60
2022-12-31T21:41:39.359Z,94.70
2022-12-31T21:44:42.205Z,94.80
2022-12-31T21:48:02.429Z,94.50
2022-12-31T21:51:12.785Z,94.60
2022-12-31T21:54:35.686Z,94.70
2022-12-31T21:57:59.488Z,94.80
2022-12-31T22:01:20.336Z,94.90
2022-12-31T22:05:00.526Z,94.70
2022-12-31T22:07:46.198Z,95.00
2022-12-31T22:10:52.847Z,94.50
2022-12-31T22:13:57.591Z,94.40
2022-12-31T22:17:00.433Z,94.50
2022-12-31T22:20:32.539Z,99.90
2022-12-31T22:23:26.215Z,99.70
2022-12-31T22:26:30.222Z,95.90
2022-12-31T22:29:34.482Z,93.70
2022-12-31T22:32:37.357Z,93.40
2022-12-31T22:35:40.242Z,93.60
2022-12-31T22:38:43.844Z,99.70
2022-12-31T22:41:46.682Z,99.90
2022-12-31T22:44:50.910Z,96.50
2022-12-31T22:47:53.998Z,96.50
2022-12-31T22:50:58.095Z,92.70
2022-12-31T22:54:00.942Z,92.20
2022-12-31T22:57:03.822Z,92.30
2022-12-31T23:00:13.340Z,92.80
2022-12-31T23:03:16.960Z,93.00
2022-12-31T23:06:20.243Z,96.50
2022-12-31T23:09:40.875Z,97.90
2022-12-31T23:12:43.708Z,95.60
2022-12-31T23:16:05.502Z,95.60
2022-12-31T23:19:26.250Z,94.60
2022-12-31T23:22:46.527Z,92.80
2022-12-31T23:25:51.251Z,92.40
2022-12-31T23:28:54.090Z,92.40
2022-12-31T23:31:58.396Z,92.70
2022-12-31T23:35:06.109Z,92.90
2022-12-31T23:38:12.560Z,93.00
2022-12-31T23:41:17.738Z,92.60
2022-12-31T23:44:20.735Z,92.00
2022-12-31T23:47:24.927Z,92.50
2022-12-31T23:50:27.783Z,92.00
2022-12-31T23:53:30.627Z,93.30
2022-12-31T23:56:33.556Z,93.40
2022-12-31T23:59:36.397Z,92.00
